sensor_id;sensor_type;location;lat;lon;timestamp;pressure;altitude;pressure_sealevel;temperature;humidity
49341;BME280;35209;51.050;13.678;2023-03-21T00:03:16;100010.22;;;9.42;100.00
49341;BME280;35209;51.050;13.678;2023-03-21T00:08:23;100024.06;;;9.48;100.00
49341;BME280;35209;51.050;13.678;2023-03-21T00:13:26;100023.66;;;9.29;100.00
49341;BME280;35209;51.050;13.678;2023-03-21T00:18:28;100030.34;;;9.41;100.00
49341;BME280;35209;51.050;13.678;2023-03-21T00:23:31;100038.78;;;9.20;100.00
49341;BME280;35209;51.050;13.678;2023-03-21T00:28:33;100045.13;;;9.13;100.00
49341;BME280;35209;51.050;13.678;2023-03-21T00:33:36;100037.63;;;8.97;100.00
49341;BME280;35209;51.050;13.678;2023-03-21T00:38:39;100042.78;;;9.00;100.00
49341;BME280;35209;51.050;13.678;2023-03-21T00:43:41;100039.63;;;8.88;100.00
49341;BME280;35209;51.050;13.678;2023-03-21T00:48:42;100026.69;;;8.81;100.00
49341;BME280;35209;51.050;13.678;2023-03-21T00:53:46;100031.06;;;8.81;100.00
49341;BME280;35209;51.050;13.678;2023-03-21T00:58:48;100028.63;;;8.73;100.00
49341;BME280;35209;51.050;13.678;2023-03-21T01:03:50;100034.09;;;8.64;100.00
49341;BME280;35209;51.050;13.678;2023-03-21T01:09:12;100035.84;;;8.62;100.00
49341;BME280;35209;51.050;13.678;2023-03-21T01:14:16;100032.50;;;8.57;100.00
49341;BME280;35209;51.050;13.678;2023-03-21T01:19:27;100030.59;;;8.99;100.00
49341;BME280;35209;51.050;13.678;2023-03-21T01:24:49;100027.38;;;8.88;100.00
49341;BME280;35209;51.050;13.678;2023-03-21T01:30:01;100028.84;;;8.98;100.00
49341;BME280;35209;51.050;13.678;2023-03-21T01:35:09;100038.16;;;8.76;100.00
49341;BME280;35209;51.050;13.678;2023-03-21T01:40:16;100026.69;;;8.80;100.00
49341;BME280;35209;51.050;13.678;2023-03-21T01:51:05;100034.72;;;8.74;100.00
49341;BME280;35209;51.050;13.678;2023-03-21T01:56:18;100027.38;;;8.88;100.00
49341;BME280;35209;51.050;13.678;2023-03-21T02:01:30;100025.44;;;8.61;100.00
49341;BME280;35209;51.050;13.678;2023-03-21T02:06:56;100021.94;;;8.60;100.00
49341;BME280;35209;51.050;13.678;2023-03-21T02:12:11;100013.81;;;8.71;100.00
49341;BME280;35209;51.050;13.678;2023-03-21T02:17:35;100018.03;;;8.78;99.25
49341;BME280;35209;51.050;13.678;2023-03-21T02:48:58;100012.13;;;7.91;100.00
49341;BME280;35209;51.050;13.678;2023-03-21T02:54:05;100011.91;;;8.01;98.95
49341;BME280;35209;51.050;13.678;2023-03-21T02:59:32;100008.28;;;8.07;97.59
49341;BME280;35209;51.050;13.678;2023-03-21T03:04:48;100012.47;;;7.74;100.00
49341;BME280;35209;51.050;13.678;2023-03-21T03:10:02;100010.13;;;7.60;100.00
49341;BME280;35209;51.050;13.678;2023-03-21T03:15:28;99997.25;;;7.51;100.00
49341;BME280;35209;51.050;13.678;2023-03-21T03:20:41;100000.94;;;7.41;100.00
49341;BME280;35209;51.050;13.678;2023-03-21T03:25:51;100004.50;;;7.37;100.00
49341;BME280;35209;51.050;13.678;2023-03-21T03:30:56;99996.44;;;7.49;100.00
49341;BME280;35209;51.050;13.678;2023-03-21T03:36:17;100002.50;;;7.49;100.00
49341;BME280;35209;51.050;13.678;2023-03-21T03:41:44;100003.50;;;7.44;100.00
49341;BME280;35209;51.050;13.678;2023-03-21T03:47:16;100003.66;;;7.36;100.00
49341;BME280;35209;51.050;13.678;2023-03-21T03:52:50;100002.69;;;7.40;100.00
49341;BME280;35209;51.050;13.678;2023-03-21T03:58:01;100003.59;;;7.38;100.00
49341;BME280;35209;51.050;13.678;2023-03-21T04:03:06;100002.59;;;7.45;100.00
49341;BME280;35209;51.050;13.678;2023-03-21T04:08:12;100003.28;;;7.54;100.00
49341;BME280;35209;51.050;13.678;2023-03-21T04:13:17;100008.22;;;7.68;100.00
49341;BME280;35209;51.050;13.678;2023-03-21T04:18:27;100014.69;;;7.50;100.00
49341;BME280;35209;51.050;13.678;2023-03-21T04:23:30;100018.28;;;7.45;100.00
49341;BME280;35209;51.050;13.678;2023-03-21T04:28:33;100009.38;;;7.55;100.00
49341;BME280;35209;51.050;13.678;2023-03-21T04:33:56;100010.84;;;7.68;100.00
49341;BME280;35209;51.050;13.678;2023-03-21T04:38:58;100012.66;;;7.65;100.00
49341;BME280;35209;51.050;13.678;2023-03-21T04:44:03;100005.56;;;7.70;100.00
49341;BME280;35209;51.050;13.678;2023-03-21T04:49:06;100006.75;;;7.55;100.00
49341;BME280;35209;51.050;13.678;2023-03-21T04:54:08;100011.44;;;7.38;100.00
49341;BME280;35209;51.050;13.678;2023-03-21T04:59:13;100007.84;;;7.45;100.00
49341;BME280;35209;51.050;13.678;2023-03-21T05:04:15;100005.00;;;7.55;100.00
49341;BME280;35209;51.050;13.678;2023-03-21T05:09:17;100002.13;;;7.68;100.00
49341;BME280;35209;51.050;13.678;2023-03-21T05:14:22;100009.09;;;7.69;100.00
49341;BME280;35209;51.050;13.678;2023-03-21T05:19:27;100012.16;;;7.89;99.01
49341;BME280;35209;51.050;13.678;2023-03-21T05:24:37;100014.38;;;7.67;100.00
49341;BME280;35209;51.050;13.678;2023-03-21T05:29:47;100010.75;;;7.73;100.00
49341;BME280;35209;51.050;13.678;2023-03-21T05:34:49;100015.97;;;7.73;100.00
49341;BME280;35209;51.050;13.678;2023-03-21T05:39:55;100014.88;;;7.84;99.37
49341;BME280;35209;51.050;13.678;2023-03-21T05:45:02;100012.75;;;7.62;100.00
49341;BME280;35209;51.050;13.678;2023-03-21T05:50:06;100014.38;;;7.67;100.00
49341;BME280;35209;51.050;13.678;2023-03-21T05:55:09;100013.56;;;7.64;100.00
49341;BME280;35209;51.050;13.678;2023-03-21T06:00:12;100004.47;;;7.81;100.00
49341;BME280;35209;51.050;13.678;2023-03-21T06:05:16;100011.59;;;7.73;100.00
49341;BME280;35209;51.050;13.678;2023-03-21T06:10:18;100012.41;;;7.77;100.00
49341;BME280;35209;51.050;13.678;2023-03-21T06:15:22;100017.50;;;7.83;100.00
49341;BME280;35209;51.050;13.678;2023-03-21T06:20:41;100012.03;;;7.95;100.00
49341;BME280;35209;51.050;13.678;2023-03-21T06:25:46;100011.97;;;7.97;100.00
49341;BME280;35209;51.050;13.678;2023-03-21T06:30:48;100015.97;;;8.15;100.00
49341;BME280;35209;51.050;13.678;2023-03-21T06:35:56;100022.84;;;8.19;97.73
49341;BME280;35209;51.050;13.678;2023-03-21T06:40:58;100032.47;;;8.18;99.31
49341;BME280;35209;51.050;13.678;2023-03-21T06:46:05;100030.69;;;8.20;97.58
49341;BME280;35209;51.050;13.678;2023-03-21T06:51:07;100035.19;;;8.14;99.44
49341;BME280;35209;51.050;13.678;2023-03-21T06:56:14;100032.56;;;8.15;99.76
49341;BME280;35209;51.050;13.678;2023-03-21T07:01:16;100033.81;;;8.38;97.12
49341;BME280;35209;51.050;13.678;2023-03-21T07:06:29;100049.19;;;8.53;96.57
49341;BME280;35209;51.050;13.678;2023-03-21T07:11:33;100039.88;;;8.41;96.62
49341;BME280;35209;51.050;13.678;2023-03-21T07:16:37;100043.91;;;8.54;98.12
49341;BME280;35209;51.050;13.678;2023-03-21T07:21:38;100047.78;;;8.75;96.41
49341;BME280;35209;51.050;13.678;2023-03-21T07:26:40;100043.63;;;8.67;98.62
49341;BME280;35209;51.050;13.678;2023-03-21T07:31:42;100043.53;;;8.70;99.15
49341;BME280;35209;51.050;13.678;2023-03-21T07:36:44;100039.97;;;8.74;96.22
49341;BME280;35209;51.050;13.678;2023-03-21T07:41:46;100043.25;;;8.82;95.83
49341;BME280;35209;51.050;13.678;2023-03-21T07:47:02;100045.72;;;8.88;95.05
49341;BME280;35209;51.050;13.678;2023-03-21T07:52:04;100044.69;;;8.94;93.00
49341;BME280;35209;51.050;13.678;2023-03-21T07:57:08;100044.69;;;8.95;95.31
49341;BME280;35209;51.050;13.678;2023-03-21T08:02:15;100046.41;;;9.30;92.93
49341;BME280;35209;51.050;13.678;2023-03-21T08:07:17;100036.00;;;9.58;90.51
49341;BME280;35209;51.050;13.678;2023-03-21T08:12:19;100037.13;;;9.81;94.72
49341;BME280;35209;51.050;13.678;2023-03-21T08:17:21;100042.03;;;10.23;86.42
49341;BME280;35209;51.050;13.678;2023-03-21T08:22:22;100045.56;;;9.92;89.31
49341;BME280;35209;51.050;13.678;2023-03-21T08:27:24;100041.91;;;9.98;87.00
49341;BME280;35209;51.050;13.678;2023-03-21T08:32:26;100041.06;;;9.96;90.86
49341;BME280;35209;51.050;13.678;2023-03-21T08:37:32;100043.66;;;10.28;84.70
49341;BME280;35209;51.050;13.678;2023-03-21T08:42:34;100045.53;;;10.22;85.37
49341;BME280;35209;51.050;13.678;2023-03-21T08:47:36;100034.59;;;10.07;86.21
49341;BME280;35209;51.050;13.678;2023-03-21T08:52:38;100032.69;;;10.13;89.04
49341;BME280;35209;51.050;13.678;2023-03-21T08:57:40;100034.00;;;10.29;85.98
49341;BME280;35209;51.050;13.678;2023-03-21T09:02:43;100038.72;;;10.46;83.16
49341;BME280;35209;51.050;13.678;2023-03-21T09:07:46;100031.47;;;10.54;85.21
49341;BME280;35209;51.050;13.678;2023-03-21T09:12:50;100037.63;;;10.81;84.53
49341;BME280;35209;51.050;13.678;2023-03-21T09:17:52;100033.66;;;11.21;81.54
49341;BME280;35209;51.050;13.678;2023-03-21T09:22:55;100034.28;;;11.02;81.05
49341;BME280;35209;51.050;13.678;2023-03-21T09:27:59;100028.69;;;11.36;79.84
49341;BME280;35209;51.050;13.678;2023-03-21T09:33:03;100032.56;;;11.26;81.46
49341;BME280;35209;51.050;13.678;2023-03-21T09:38:07;100028.09;;;11.53;77.38
49341;BME280;35209;51.050;13.678;2023-03-21T09:43:45;100019.78;;;11.66;78.36
49341;BME280;35209;51.050;13.678;2023-03-21T09:48:54;100028.34;;;11.47;77.79
49341;BME280;35209;51.050;13.678;2023-03-21T09:54:16;100020.00;;;11.34;78.99
49341;BME280;35209;51.050;13.678;2023-03-21T09:59:32;100012.88;;;11.38;79.62
49341;BME280;35209;51.050;13.678;2023-03-21T10:04:40;100006.44;;;11.70;79.18
49341;BME280;35209;51.050;13.678;2023-03-21T10:09:45;100000.75;;;11.81;76.64
49341;BME280;35209;51.050;13.678;2023-03-21T10:14:52;99993.84;;;11.78;78.50
49341;BME280;35209;51.050;13.678;2023-03-21T10:20:14;99991.06;;;11.81;79.51
49341;BME280;35209;51.050;13.678;2023-03-21T10:25:25;99994.00;;;12.21;77.43
49341;BME280;35209;51.050;13.678;2023-03-21T10:30:50;99986.59;;;12.52;73.61
49341;BME280;35209;51.050;13.678;2023-03-21T10:35:59;99980.69;;;12.68;72.75
49341;BME280;35209;51.050;13.678;2023-03-21T10:41:01;99982.00;;;12.79;73.32
49341;BME280;35209;51.050;13.678;2023-03-21T10:46:17;99976.38;;;13.07;72.36
49341;BME280;35209;51.050;13.678;2023-03-21T10:51:26;99977.03;;;13.12;72.82
49341;BME280;35209;51.050;13.678;2023-03-21T10:56:31;99972.97;;;13.26;69.81
49341;BME280;35209;51.050;13.678;2023-03-21T11:01:42;99965.91;;;13.47;72.21
49341;BME280;35209;51.050;13.678;2023-03-21T11:06:56;99968.88;;;13.39;71.35
49341;BME280;35209;51.050;13.678;2023-03-21T11:12:10;99961.78;;;13.19;70.76
49341;BME280;35209;51.050;13.678;2023-03-21T11:22:25;99956.97;;;13.49;71.05
49341;BME280;35209;51.050;13.678;2023-03-21T11:27:28;99953.22;;;13.55;71.29
49341;BME280;35209;51.050;13.678;2023-03-21T11:32:35;99944.09;;;14.00;69.15
49341;BME280;35209;51.050;13.678;2023-03-21T11:37:41;99944.66;;;13.69;69.55
49341;BME280;35209;51.050;13.678;2023-03-21T11:42:49;99936.94;;;13.83;69.29
49341;BME280;35209;51.050;13.678;2023-03-21T11:47:54;99931.53;;;13.86;68.83
49341;BME280;35209;51.050;13.678;2023-03-21T11:53:36;99918.34;;;14.58;64.66
49341;BME280;35209;51.050;13.678;2023-03-21T11:58:51;99917.09;;;14.29;67.88
49341;BME280;35209;51.050;13.678;2023-03-21T12:04:20;99915.53;;;14.25;68.67
49341;BME280;35209;51.050;13.678;2023-03-21T12:09:42;99901.78;;;14.36;66.72
49341;BME280;35209;51.050;13.678;2023-03-21T12:14:59;99893.59;;;14.23;69.04
49341;BME280;35209;51.050;13.678;2023-03-21T12:25:24;99881.69;;;14.68;64.84
49341;BME280;35209;51.050;13.678;2023-03-21T12:30:43;99869.50;;;14.29;67.08
49341;BME280;35209;51.050;13.678;2023-03-21T12:46:18;99861.53;;;14.12;67.38
49341;BME280;35209;51.050;13.678;2023-03-21T12:51:28;99853.00;;;14.24;68.14
49341;BME280;35209;51.050;13.678;2023-03-21T12:56:37;99840.53;;;14.62;66.46
49341;BME280;35209;51.050;13.678;2023-03-21T13:01:42;99840.38;;;15.16;61.85
49341;BME280;35209;51.050;13.678;2023-03-21T13:06:46;99829.94;;;14.80;63.04
49341;BME280;35209;51.050;13.678;2023-03-21T13:11:50;99827.19;;;14.81;64.34
49341;BME280;35209;51.050;13.678;2023-03-21T13:17:01;99819.97;;;14.85;65.01
49341;BME280;35209;51.050;13.678;2023-03-21T13:27:31;99809.41;;;15.50;62.70
49341;BME280;35209;51.050;13.678;2023-03-21T13:37:42;99794.94;;;15.39;64.48
49341;BME280;35209;51.050;13.678;2023-03-21T13:42:52;99782.13;;;15.16;63.70
49341;BME280;35209;51.050;13.678;2023-03-21T13:48:03;99787.16;;;15.21;62.17
49341;BME280;35209;51.050;13.678;2023-03-21T13:58:38;99784.03;;;15.46;62.87
49341;BME280;35209;51.050;13.678;2023-03-21T14:04:13;99779.56;;;15.78;59.60
49341;BME280;35209;51.050;13.678;2023-03-21T14:09:40;99772.31;;;15.34;62.95
49341;BME280;35209;51.050;13.678;2023-03-21T14:14:50;99764.66;;;14.96;63.93
49341;BME280;35209;51.050;13.678;2023-03-21T14:20:24;99764.25;;;14.88;65.35
49341;BME280;35209;51.050;13.678;2023-03-21T14:25:33;99739.16;;;15.11;65.27
49341;BME280;35209;51.050;13.678;2023-03-21T14:30:53;99733.78;;;15.12;66.91
49341;BME280;35209;51.050;13.678;2023-03-21T14:36:03;99735.16;;;15.20;67.36
49341;BME280;35209;51.050;13.678;2023-03-21T14:41:21;99727.13;;;15.05;66.82
49341;BME280;35209;51.050;13.678;2023-03-21T14:46:23;99722.06;;;14.85;66.64
49341;BME280;35209;51.050;13.678;2023-03-21T14:51:25;99718.84;;;14.62;68.79
49341;BME280;35209;51.050;13.678;2023-03-21T14:56:27;99709.84;;;15.30;62.37
49341;BME280;35209;51.050;13.678;2023-03-21T15:01:31;99711.38;;;15.18;64.65
49341;BME280;35209;51.050;13.678;2023-03-21T15:11:53;99703.97;;;14.93;67.79
49341;BME280;35209;51.050;13.678;2023-03-21T15:16:57;99690.66;;;14.79;68.23
49341;BME280;35209;51.050;13.678;2023-03-21T15:22:07;99696.72;;;14.97;66.75
49341;BME280;35209;51.050;13.678;2023-03-21T15:27:14;99697.44;;;14.67;68.43
49341;BME280;35209;51.050;13.678;2023-03-21T15:32:19;99691.94;;;14.87;67.11
49341;BME280;35209;51.050;13.678;2023-03-21T15:37:27;99697.97;;;14.89;67.56
49341;BME280;35209;51.050;13.678;2023-03-21T15:42:39;99689.75;;;14.78;67.15
49341;BME280;35209;51.050;13.678;2023-03-21T15:47:59;99685.13;;;14.50;70.08
49341;BME280;35209;51.050;13.678;2023-03-21T15:53:05;99682.56;;;14.31;72.72
49341;BME280;35209;51.050;13.678;2023-03-21T15:58:12;99686.41;;;14.26;73.54
49341;BME280;35209;51.050;13.678;2023-03-21T16:03:21;99678.84;;;14.35;72.29
49341;BME280;35209;51.050;13.678;2023-03-21T16:08:32;99672.00;;;14.49;70.36
49341;BME280;35209;51.050;13.678;2023-03-21T16:13:36;99669.91;;;14.21;72.41
49341;BME280;35209;51.050;13.678;2023-03-21T16:18:37;99676.81;;;13.90;73.92
49341;BME280;35209;51.050;13.678;2023-03-21T16:23:39;99678.13;;;13.81;73.84
49341;BME280;35209;51.050;13.678;2023-03-21T16:28:42;99679.81;;;13.82;73.29
49341;BME280;35209;51.050;13.678;2023-03-21T16:33:44;99672.44;;;13.89;72.97
49341;BME280;35209;51.050;13.678;2023-03-21T16:38:47;99671.44;;;13.74;73.89
49341;BME280;35209;51.050;13.678;2023-03-21T16:43:55;99662.78;;;13.71;74.53
49341;BME280;35209;51.050;13.678;2023-03-21T16:48:57;99671.28;;;13.60;75.03
49341;BME280;35209;51.050;13.678;2023-03-21T16:53:59;99673.97;;;13.58;75.09
49341;BME280;35209;51.050;13.678;2023-03-21T16:59:01;99677.88;;;13.32;77.05
49341;BME280;35209;51.050;13.678;2023-03-21T17:04:02;99674.25;;;13.35;76.58
49341;BME280;35209;51.050;13.678;2023-03-21T17:09:04;99680.28;;;13.56;75.87
49341;BME280;35209;51.050;13.678;2023-03-21T17:14:08;99677.69;;;13.54;75.87
49341;BME280;35209;51.050;13.678;2023-03-21T17:19:15;99670.09;;;13.48;75.97
49341;BME280;35209;51.050;13.678;2023-03-21T17:24:18;99667.06;;;13.38;76.24
49341;BME280;35209;51.050;13.678;2023-03-21T17:29:20;99670.63;;;13.37;76.15
49341;BME280;35209;51.050;13.678;2023-03-21T17:34:21;99671.34;;;13.22;77.13
49341;BME280;35209;51.050;13.678;2023-03-21T17:39:25;99665.94;;;13.06;78.35
49341;BME280;35209;51.050;13.678;2023-03-21T17:44:27;99668.34;;;13.30;77.24
49341;BME280;35209;51.050;13.678;2023-03-21T17:49:28;99662.38;;;13.07;78.28
49341;BME280;35209;51.050;13.678;2023-03-21T17:54:31;99670.31;;;12.88;79.80
49341;BME280;35209;51.050;13.678;2023-03-21T17:59:33;99662.72;;;13.00;80.05
49341;BME280;35209;51.050;13.678;2023-03-21T18:04:34;99656.59;;;12.99;80.33
49341;BME280;35209;51.050;13.678;2023-03-21T18:09:36;99657.38;;;12.82;81.26
49341;BME280;35209;51.050;13.678;2023-03-21T18:14:38;99657.56;;;12.79;82.15
49341;BME280;35209;51.050;13.678;2023-03-21T18:19:41;99653.81;;;12.65;83.39
49341;BME280;35209;51.050;13.678;2023-03-21T18:24:45;99664.50;;;12.61;83.43
49341;BME280;35209;51.050;13.678;2023-03-21T18:29:47;99655.81;;;12.59;84.28
49341;BME280;35209;51.050;13.678;2023-03-21T18:35:14;99657.13;;;12.30;85.79
49341;BME280;35209;51.050;13.678;2023-03-21T18:40:17;99658.75;;;12.14;87.60
49341;BME280;35209;51.050;13.678;2023-03-21T18:45:22;99657.50;;;12.02;88.31
49341;BME280;35209;51.050;13.678;2023-03-21T18:50:25;99655.16;;;11.96;88.51
49341;BME280;35209;51.050;13.678;2023-03-21T18:55:27;99655.09;;;11.98;89.00
49341;BME280;35209;51.050;13.678;2023-03-21T19:00:46;99655.41;;;11.90;89.95
49341;BME280;35209;51.050;13.678;2023-03-21T19:05:48;99672.66;;;12.18;90.66
49341;BME280;35209;51.050;13.678;2023-03-21T19:10:49;99660.94;;;12.04;89.36
49341;BME280;35209;51.050;13.678;2023-03-21T19:15:52;99653.41;;;11.75;92.11
49341;BME280;35209;51.050;13.678;2023-03-21T19:20:54;99657.16;;;11.69;92.99
49341;BME280;35209;51.050;13.678;2023-03-21T19:25:59;99661.81;;;11.42;94.61
49341;BME280;35209;51.050;13.678;2023-03-21T19:31:05;99668.63;;;11.46;94.89
49341;BME280;35209;51.050;13.678;2023-03-21T19:36:07;99666.81;;;11.48;94.20
49341;BME280;35209;51.050;13.678;2023-03-21T19:41:22;99661.28;;;11.12;96.43
49341;BME280;35209;51.050;13.678;2023-03-21T19:46:23;99651.66;;;10.89;97.97
49341;BME280;35209;51.050;13.678;2023-03-21T19:51:26;99652.31;;;10.72;98.71
49341;BME280;35209;51.050;13.678;2023-03-21T19:56:31;99652.53;;;10.66;99.23
49341;BME280;35209;51.050;13.678;2023-03-21T20:01:33;99655.22;;;10.65;99.16
49341;BME280;35209;51.050;13.678;2023-03-21T20:06:35;99651.75;;;10.64;99.42
49341;BME280;35209;51.050;13.678;2023-03-21T20:11:37;99661.28;;;10.67;98.59
49341;BME280;35209;51.050;13.678;2023-03-21T20:16:39;99654.97;;;10.71;97.96
49341;BME280;35209;51.050;13.678;2023-03-21T20:21:44;99664.44;;;10.76;95.98
49341;BME280;35209;51.050;13.678;2023-03-21T20:26:55;99665.84;;;10.85;95.36
49341;BME280;35209;51.050;13.678;2023-03-21T20:31:57;99669.25;;;10.87;94.75
49341;BME280;35209;51.050;13.678;2023-03-21T20:36:59;99664.94;;;10.86;95.23
49341;BME280;35209;51.050;13.678;2023-03-21T20:42:03;99663.22;;;10.85;95.14
49341;BME280;35209;51.050;13.678;2023-03-21T20:47:06;99661.63;;;10.81;95.03
49341;BME280;35209;51.050;13.678;2023-03-21T20:52:07;99666.19;;;10.76;95.24
49341;BME280;35209;51.050;13.678;2023-03-21T20:57:30;99666.75;;;10.84;93.89
49341;BME280;35209;51.050;13.678;2023-03-21T21:02:31;99663.53;;;10.99;90.76
49341;BME280;35209;51.050;13.678;2023-03-21T21:07:33;99663.22;;;11.07;89.52
49341;BME280;35209;51.050;13.678;2023-03-21T21:12:37;99674.25;;;11.17;88.55
49341;BME280;35209;51.050;13.678;2023-03-21T21:17:39;99669.84;;;11.17;88.29
49341;BME280;35209;51.050;13.678;2023-03-21T21:23:01;99671.44;;;11.42;85.23
49341;BME280;35209;51.050;13.678;2023-03-21T21:28:03;99684.94;;;11.76;81.68
49341;BME280;35209;51.050;13.678;2023-03-21T21:33:09;99689.91;;;11.84;79.80
49341;BME280;35209;51.050;13.678;2023-03-21T21:38:12;99695.13;;;11.63;82.19
49341;BME280;35209;51.050;13.678;2023-03-21T21:43:14;99688.72;;;11.49;83.56
49341;BME280;35209;51.050;13.678;2023-03-21T21:48:19;99691.91;;;11.57;83.57
49341;BME280;35209;51.050;13.678;2023-03-21T21:53:21;99695.88;;;11.45;85.55
49341;BME280;35209;51.050;13.678;2023-03-21T21:58:23;99691.00;;;11.36;88.46
49341;BME280;35209;51.050;13.678;2023-03-21T22:03:26;99698.59;;;11.44;88.85
49341;BME280;35209;51.050;13.678;2023-03-21T22:08:28;99706.06;;;11.97;85.70
49341;BME280;35209;51.050;13.678;2023-03-21T22:13:33;99708.25;;;11.65;87.34
49341;BME280;35209;51.050;13.678;2023-03-21T22:18:35;99707.03;;;11.72;88.98
49341;BME280;35209;51.050;13.678;2023-03-21T22:23:39;99707.56;;;11.60;91.48
49341;BME280;35209;51.050;13.678;2023-03-21T22:28:42;99700.94;;;11.50;91.84
49341;BME280;35209;51.050;13.678;2023-03-21T22:33:44;99703.59;;;11.28;95.71
49341;BME280;35209;51.050;13.678;2023-03-21T22:38:46;99707.06;;;11.06;100.00
49341;BME280;35209;51.050;13.678;2023-03-21T22:43:48;99706.88;;;10.89;100.00
49341;BME280;35209;51.050;13.678;2023-03-21T22:48:50;99703.16;;;10.95;100.00
49341;BME280;35209;51.050;13.678;2023-03-21T22:53:52;99707.22;;;10.80;100.00
49341;BME280;35209;51.050;13.678;2023-03-21T22:58:54;99705.31;;;10.83;100.00
49341;BME280;35209;51.050;13.678;2023-03-21T23:03:57;99701.22;;;10.76;100.00
49341;BME280;35209;51.050;13.678;2023-03-21T23:08:59;99694.53;;;10.68;100.00
49341;BME280;35209;51.050;13.678;2023-03-21T23:14:01;99685.09;;;10.62;100.00
49341;BME280;35209;51.050;13.678;2023-03-21T23:19:09;99688.31;;;10.70;100.00
49341;BME280;35209;51.050;13.678;2023-03-21T23:24:11;99685.84;;;10.66;100.00
49341;BME280;35209;51.050;13.678;2023-03-21T23:29:13;99680.41;;;10.70;100.00
49341;BME280;35209;51.050;13.678;2023-03-21T23:34:15;99671.91;;;10.64;100.00
49341;BME280;35209;51.050;13.678;2023-03-21T23:39:17;99677.69;;;10.73;100.00
49341;BME280;35209;51.050;13.678;2023-03-21T23:44:21;99675.34;;;10.66;100.00
49341;BME280;35209;51.050;13.678;2023-03-21T23:49:23;99681.00;;;10.55;100.00
49341;BME280;35209;51.050;13.678;2023-03-21T23:54:25;99690.59;;;10.56;100.00
49341;BME280;35209;51.050;13.678;2023-03-21T23:59:27;99688.72;;;10.59;100.00
